Time;durP1;ratioP1;P1;durP2;ratioP2;P2;SDS_P1;SDS_P2;PMS_P1;PMS_P2;Temp;Humidity;BMP_temperature;BMP_pressure;BME280_temperature;BME280_humidity;BME280_pressure;Samples;Min_cycle;Max_cycle;Signal;HPM_P1;HPM_P2
2022/01/01 00:00:16;;;;;;;3.70;3.30;;;13.40;75.50;13.70;97315.00;;;;5053950;28;20201;-83
2022/01/01 00:02:43;;;;;;;4.13;3.20;;;13.40;75.60;13.70;97316.00;;;;5054236;28;20208;-84
2022/01/01 00:05:13;;;;;;;3.60;3.20;;;13.40;76.30;13.70;97314.00;;;;5053745;28;20211;-82
2022/01/01 00:07:41;;;;;;;9.20;3.40;;;13.40;75.60;13.70;97316.00;;;;5053105;28;20572;-84
2022/01/01 00:10:11;;;;;;;3.27;2.97;;;13.40;75.70;13.70;97321.00;;;;5053472;28;20273;-84
2022/01/01 00:12:41;;;;;;;4.13;3.47;;;13.40;75.60;13.70;97318.00;;;;5053741;28;20224;-82
2022/01/01 00:15:08;;;;;;;4.87;3.80;;;13.40;75.80;13.70;97317.00;;;;5053576;28;20200;-82
2022/01/01 00:17:35;;;;;;;4.53;4.13;;;13.40;75.90;13.70;97321.00;;;;5053680;28;20203;-82
2022/01/01 00:20:02;;;;;;;4.40;4.00;;;13.40;75.80;13.70;97330.00;;;;5053394;28;20211;-81
2022/01/01 00:22:29;;;;;;;14.27;4.90;;;13.40;75.70;13.70;97321.00;;;;5053142;28;20572;-83
2022/01/01 00:24:56;;;;;;;5.37;4.57;;;13.40;75.80;13.70;97324.00;;;;5052390;28;20666;-83
2022/01/01 00:27:24;;;;;;;4.83;4.37;;;13.40;75.80;13.70;97327.00;;;;5052506;28;20700;-85
2022/01/01 00:29:51;;;;;;;4.27;3.87;;;13.40;75.80;13.70;97334.00;;;;5053391;28;20220;-82
2022/01/01 00:32:18;;;;;;;4.17;3.63;;;13.40;75.70;13.70;97332.00;;;;5053176;28;20220;-81
2022/01/01 00:34:45;;;;;;;6.47;4.63;;;13.40;75.80;13.70;97336.00;;;;5047205;28;20193;-84
2022/01/01 00:37:12;;;;;;;4.43;4.03;;;13.40;75.80;13.70;97339.00;;;;5033558;28;20201;-81
2022/01/01 00:39:39;;;;;;;10.40;5.53;;;13.40;75.90;13.70;97340.00;;;;5033269;28;20201;-81
2022/01/01 00:42:07;;;;;;;7.00;6.00;;;13.40;76.10;13.80;97344.00;;;;5032562;28;20240;-81
2022/01/01 00:44:35;;;;;;;4.70;4.27;;;13.50;76.40;13.80;97348.00;;;;5035572;28;20200;-82
2022/01/01 00:47:04;;;;;;;6.63;4.27;;;13.50;76.30;13.80;97338.00;;;;5052814;28;20208;-81
2022/01/01 00:49:31;;;;;;;5.80;4.47;;;13.50;76.50;13.80;97346.00;;;;5052815;28;20643;-81
2022/01/01 00:51:58;;;;;;;4.70;4.30;;;13.50;76.50;13.90;97344.00;;;;5053076;28;20217;-83
2022/01/01 00:54:25;;;;;;;6.70;5.00;;;13.50;76.50;13.90;97345.00;;;;5053059;28;20196;-81
2022/01/01 00:56:52;;;;;;;12.23;5.00;;;13.60;76.70;13.90;97349.00;;;;5053393;28;20193;-81
2022/01/01 00:59:20;;;;;;;5.37;4.30;;;13.60;76.60;14.00;97346.00;;;;5052752;28;20666;-83
2022/01/01 01:01:48;;;;;;;5.87;5.33;;;13.60;76.60;14.00;97347.00;;;;5053252;28;20286;-81
2022/01/01 01:04:15;;;;;;;7.80;5.07;;;13.70;76.50;14.00;97350.00;;;;5048253;28;20199;-81
2022/01/01 01:06:42;;;;;;;17.30;6.53;;;13.80;76.60;14.00;97359.00;;;;5052950;28;20291;-81
2022/01/01 01:09:09;;;;;;;14.70;5.53;;;13.70;76.70;14.00;97358.00;;;;5053599;28;20617;-81
2022/01/01 01:11:42;;;;;;;5.60;4.73;;;13.70;76.70;14.10;97364.00;;;;5052977;28;20229;-81
2022/01/01 01:14:18;;;;;;;5.07;4.00;;;13.70;76.40;14.10;97362.00;;;;5054778;28;20196;-81
2022/01/01 01:16:45;;;;;;;5.00;3.70;;;13.70;76.50;14.10;97364.00;;;;5054977;28;20177;-82
2022/01/01 01:19:14;;;;;;;18.60;5.17;;;13.80;76.50;14.20;97374.00;;;;5036877;28;20205;-81
2022/01/01 01:21:41;;;;;;;8.87;4.53;;;13.80;76.50;14.20;97378.00;;;;5036758;28;20232;-82
2022/01/01 01:24:08;;;;;;;4.30;3.90;;;13.80;76.70;14.20;97390.00;;;;5036896;28;20209;-81
2022/01/01 01:26:35;;;;;;;14.30;4.63;;;13.80;76.70;14.30;97395.00;;;;5040260;28;20204;-81
2022/01/01 01:29:04;;;;;;;6.83;4.60;;;13.80;76.50;14.30;97395.00;;;;5057072;28;20207;-81
2022/01/01 01:31:31;;;;;;;3.63;3.30;;;13.90;76.80;14.30;97391.00;;;;5057511;28;20698;-81
2022/01/01 01:33:58;;;;;;;3.70;3.40;;;13.90;76.90;14.40;97402.00;;;;5063516;28;20204;-81
2022/01/01 01:36:27;;;;;;;8.17;3.73;;;13.90;76.60;14.40;97396.00;;;;5072346;28;20279;-83
2022/01/01 01:38:54;;;;;;;5.00;3.17;;;14.10;76.70;14.40;97395.00;;;;5074982;28;20200;-82
2022/01/01 01:41:21;;;;;;;4.27;2.90;;;14.00;76.50;14.50;97383.00;;;;5075031;28;20224;-85
2022/01/01 01:43:51;;;;;;;3.00;2.73;;;14.00;76.40;14.50;97391.00;;;;5067917;28;20196;-81
2022/01/01 01:46:18;;;;;;;4.20;2.73;;;14.10;76.50;14.50;97394.00;;;;5056446;28;20184;-83
2022/01/01 01:48:46;;;;;;;2.50;2.17;;;14.10;76.30;14.50;97397.00;;;;5055595;28;20208;-82
2022/01/01 01:51:13;;;;;;;2.73;2.53;;;14.10;76.40;14.50;97409.00;;;;5054985;28;20231;-82
2022/01/01 01:53:42;;;;;;;2.63;2.30;;;14.10;76.50;14.50;97401.00;;;;5035209;28;20201;-81
2022/01/01 01:56:09;;;;;;;12.67;3.43;;;14.10;76.30;14.60;97403.00;;;;5034841;28;20212;-85
2022/01/01 01:58:36;;;;;;;3.73;3.20;;;14.20;76.30;14.60;97402.00;;;;5034952;28;20572;-81
2022/01/01 02:03:51;;;;;;;4.43;3.80;;;14.20;76.10;14.60;97407.00;;;;5033283;28;20192;-83
2022/01/01 02:06:20;;;;;;;11.03;4.07;;;14.20;76.10;14.60;97402.00;;;;5054423;28;20670;-82
2022/01/01 02:08:49;;;;;;;12.83;5.63;;;14.20;76.00;14.70;97403.00;;;;5054857;28;20200;-82
2022/01/01 02:11:18;;;;;;;15.77;6.10;;;14.20;75.90;14.70;97406.00;;;;5054575;28;20228;-82
2022/01/01 02:19:59;;;;;;;3.70;3.40;;;14.30;75.90;14.70;97401.00;;;;5028672;28;20190;-81
2022/01/01 02:22:36;;;;;;;7.43;3.10;;;14.30;75.30;14.80;97401.00;;;;5043832;23;20562;-82
2022/01/01 02:25:06;;;;;;;9.20;3.37;;;14.40;76.00;14.80;97394.00;;;;5032306;28;20208;-82
2022/01/01 02:27:36;;;;;;;10.40;2.93;;;14.40;76.00;14.80;97399.00;;;;5035095;28;20753;-82
2022/01/01 02:30:06;;;;;;;3.80;3.00;;;14.40;76.00;14.80;97395.00;;;;5034456;28;20193;-82
2022/01/01 02:32:33;;;;;;;2.87;2.67;;;14.40;75.80;14.80;97395.00;;;;5035511;28;20207;-82
2022/01/01 02:35:00;;;;;;;5.73;3.07;;;14.40;75.80;14.80;97398.00;;;;5038114;28;20225;-82
2022/01/01 02:37:31;;;;;;;3.47;2.97;;;14.40;75.80;14.90;97400.00;;;;5042940;28;20554;-82
2022/01/01 02:39:59;;;;;;;19.00;3.90;;;14.40;75.80;14.90;97400.00;;;;5034158;28;20733;-82
2022/01/01 02:42:26;;;;;;;3.83;3.13;;;14.40;75.80;14.90;97405.00;;;;5041968;28;20193;-82
2022/01/01 02:44:54;;;;;;;11.97;2.93;;;14.50;75.80;14.90;97410.00;;;;5034029;28;20268;-82
2022/01/01 02:47:21;;;;;;;19.40;4.30;;;14.50;75.70;14.90;97413.00;;;;5054048;28;20196;-82
2022/01/01 02:49:48;;;;;;;12.37;3.33;;;14.50;75.90;14.90;97413.00;;;;5073454;28;20265;-82
2022/01/01 02:52:15;;;;;;;3.93;3.37;;;14.50;76.10;15.00;97410.00;;;;5063141;28;20228;-83
2022/01/01 02:54:44;;;;;;;13.50;3.50;;;14.50;76.20;15.00;97412.00;;;;5038907;28;20852;-82
2022/01/01 02:57:12;;;;;;;3.17;2.77;;;14.60;75.90;15.00;97414.00;;;;5055973;28;20207;-82
2022/01/01 02:59:39;;;;;;;4.20;2.83;;;14.50;75.90;15.00;97415.00;;;;5055181;28;20200;-82
2022/01/01 03:02:07;;;;;;;6.37;2.87;;;14.60;75.80;15.00;97421.00;;;;5054611;28;20291;-82
2022/01/01 03:04:34;;;;;;;3.90;2.70;;;14.50;75.80;15.00;97418.00;;;;5040530;28;20231;-83
2022/01/01 03:07:01;;;;;;;3.47;3.17;;;14.60;76.10;15.00;97431.00;;;;5038692;28;20795;-82
2022/01/01 03:09:34;;;;;;;16.30;3.73;;;14.60;76.00;15.00;97427.00;;;;5034746;28;20200;-82
2022/01/01 03:12:04;;;;;;;25.70;4.27;;;14.60;75.80;15.00;97435.00;;;;5052905;28;20715;-82
2022/01/01 03:14:32;;;;;;;9.37;3.67;;;14.60;75.80;15.00;97434.00;;;;5036331;28;20255;-82
2022/01/01 03:16:59;;;;;;;3.70;3.40;;;14.60;75.80;15.00;97430.00;;;;5033981;28;20200;-82
2022/01/01 03:19:26;;;;;;;3.13;2.80;;;14.60;75.60;15.00;97430.00;;;;5033442;28;20547;-82
2022/01/01 03:21:54;;;;;;;3.50;3.20;;;14.60;75.60;15.00;97439.00;;;;5051201;28;20207;-82
2022/01/01 03:24:21;;;;;;;3.77;3.17;;;14.60;75.60;15.00;97443.00;;;;5015090;28;20218;-82
2022/01/01 03:26:48;;;;;;;5.07;2.87;;;14.60;75.50;15.00;97442.00;;;;5013939;28;20204;-82
2022/01/01 03:29:17;;;;;;;21.13;3.90;;;14.60;75.90;15.00;97446.00;;;;5016784;28;20202;-81
2022/01/01 03:31:44;;;;;;;18.83;4.23;;;14.60;75.60;15.10;97439.00;;;;5033624;28;20225;-82
2022/01/01 03:34:13;;;;;;;3.17;2.67;;;14.60;75.80;15.00;97432.00;;;;5033543;28;20225;-82
2022/01/01 03:36:40;;;;;;;8.47;3.37;;;14.60;75.80;15.10;97440.00;;;;5042647;28;20193;-83
2022/01/01 03:39:08;;;;;;;3.10;2.90;;;14.60;75.90;15.10;97445.00;;;;5032670;28;20292;-82
2022/01/01 03:41:35;;;;;;;3.97;3.40;;;14.60;76.30;15.10;97458.00;;;;5032818;28;20201;-83
2022/01/01 03:44:03;;;;;;;3.63;3.00;;;14.60;75.50;15.10;97455.00;;;;5032106;28;20229;-82
2022/01/01 03:46:31;;;;;;;5.57;3.10;;;14.70;75.50;15.10;97463.00;;;;5031397;28;20247;-82
2022/01/01 03:48:58;;;;;;;5.40;2.93;;;14.70;75.50;15.10;97464.00;;;;5030755;28;20201;-83
2022/01/01 03:51:26;;;;;;;9.70;3.33;;;14.70;75.70;15.10;97460.00;;;;5048464;28;20216;-82
2022/01/01 03:53:53;;;;;;;16.10;3.67;;;14.70;75.60;15.10;97476.00;;;;5039849;28;20224;-82
2022/01/01 03:56:20;;;;;;;3.30;3.00;;;14.60;75.80;15.10;97466.00;;;;5046989;28;20201;-83
2022/01/01 03:58:47;;;;;;;3.30;3.00;;;14.70;75.90;15.10;97463.00;;;;5030792;28;20189;-82
2022/01/01 04:01:14;;;;;;;24.40;4.23;;;14.70;75.80;15.10;97469.00;;;;5046921;28;20193;-82
2022/01/01 04:03:43;;;;;;;8.70;3.43;;;14.70;76.00;15.10;97469.00;;;;5040075;28;20214;-82
2022/01/01 04:06:10;;;;;;;8.73;3.57;;;14.70;76.00;15.10;97475.00;;;;5042754;28;20201;-83
2022/01/01 04:08:37;;;;;;;7.70;3.30;;;14.70;76.00;15.10;97480.00;;;;5052138;28;20295;-83
2022/01/01 04:11:04;;;;;;;8.20;3.10;;;14.70;75.90;15.10;97473.00;;;;5024240;28;20363;-82
2022/01/01 04:13:31;;;;;;;5.93;2.87;;;14.70;76.10;15.10;97471.00;;;;5021236;28;20230;-83
2022/01/01 04:15:58;;;;;;;13.67;3.67;;;14.70;76.20;15.10;97471.00;;;;5045126;28;20599;-82
2022/01/01 04:18:30;;;;;;;24.83;4.33;;;14.70;76.90;15.10;97465.00;;;;5052190;28;20199;-82
2022/01/01 04:21:00;;;;;;;8.00;2.90;;;14.70;76.30;15.10;97474.00;;;;5049781;28;20398;-83
2022/01/01 04:23:27;;;;;;;3.30;2.67;;;14.70;76.40;15.10;97469.00;;;;5050866;28;20219;-83
2022/01/01 04:25:54;;;;;;;3.60;2.77;;;14.70;76.40;15.10;97459.00;;;;5032468;28;20612;-82
2022/01/01 04:28:21;;;;;;;22.90;3.63;;;14.70;76.40;15.00;97458.00;;;;5038607;28;20192;-82
2022/01/01 04:30:48;;;;;;;9.83;2.87;;;14.60;76.40;15.00;97455.00;;;;5038361;28;20227;-82
2022/01/01 04:33:15;;;;;;;2.93;2.40;;;14.60;76.50;15.00;97467.00;;;;5049034;28;20217;-83
2022/01/01 04:35:42;;;;;;;11.23;3.47;;;14.60;76.60;15.00;97459.00;;;;5041920;28;20193;-82
2022/01/01 04:38:24;;;;;;;11.87;3.10;;;14.60;76.70;15.00;97458.00;;;;5051679;28;20192;-82
2022/01/01 04:40:51;;;;;;;5.07;3.10;;;14.60;76.90;15.00;97465.00;;;;5042462;28;20193;-82
2022/01/01 04:43:18;;;;;;;5.10;2.40;;;14.60;77.00;15.00;97471.00;;;;5040490;28;20223;-82
2022/01/01 04:45:46;;;;;;;2.77;2.57;;;14.60;77.20;15.00;97472.00;;;;5031822;28;20635;-82
2022/01/01 04:48:13;;;;;;;3.43;3.13;;;14.60;77.30;15.00;97468.00;;;;5034203;28;20671;-83
2022/01/01 04:50:40;;;;;;;6.17;2.90;;;14.60;77.40;15.00;97463.00;;;;5045388;28;20193;-83
2022/01/01 04:53:07;;;;;;;13.77;3.63;;;14.60;77.50;15.00;97474.00;;;;5043058;28;20212;-83
2022/01/01 04:55:35;;;;;;;6.63;3.13;;;14.60;77.50;15.00;97465.00;;;;5049156;28;20189;-83
2022/01/01 04:58:02;;;;;;;2.50;2.30;;;14.60;77.60;15.00;97468.00;;;;5027628;28;20193;-83
2022/01/01 05:00:29;;;;;;;27.60;3.63;;;14.60;77.50;15.00;97468.00;;;;5025455;28;20194;-83
2022/01/01 05:02:56;;;;;;;23.00;3.90;;;14.60;77.50;15.00;97475.00;;;;5030487;28;20218;-83
2022/01/01 05:05:23;;;;;;;4.70;2.47;;;14.60;77.60;15.00;97478.00;;;;5033706;28;20204;-83
2022/01/01 05:07:50;;;;;;;21.97;3.87;;;14.60;77.60;15.00;97485.00;;;;5055413;28;20212;-83
2022/01/01 05:10:17;;;;;;;8.57;2.90;;;14.60;77.60;15.00;97484.00;;;;5054670;28;20195;-83
2022/01/01 05:12:46;;;;;;;41.93;3.97;;;14.60;77.60;15.00;97483.00;;;;5052413;28;20229;-83
2022/01/01 05:15:13;;;;;;;5.73;2.90;;;14.60;77.60;15.00;97475.00;;;;5047848;28;20323;-82
2022/01/01 05:17:40;;;;;;;3.97;2.43;;;14.60;77.70;15.00;97481.00;;;;5055010;28;20188;-83
2022/01/01 05:20:08;;;;;;;5.50;2.70;;;14.60;77.70;15.00;97476.00;;;;5033919;28;20201;-83
2022/01/01 05:22:35;;;;;;;3.37;2.93;;;14.60;77.80;15.00;97476.00;;;;5035168;28;20193;-82
2022/01/01 05:25:03;;;;;;;33.27;4.30;;;14.60;77.70;15.00;97475.00;;;;5048641;28;20200;-82
2022/01/01 05:27:32;;;;;;;8.10;3.70;;;14.60;77.70;15.00;97469.00;;;;5056255;28;20197;-82
2022/01/01 05:30:00;;;;;;;5.63;3.37;;;14.60;77.80;15.00;97477.00;;;;5042434;28;20204;-83
2022/01/01 05:32:28;;;;;;;4.80;3.30;;;14.60;77.60;15.00;97474.00;;;;5033865;28;20257;-83
2022/01/01 05:34:55;;;;;;;41.37;5.03;;;14.60;77.70;15.00;97478.00;;;;5031658;28;20202;-82
2022/01/01 05:37:22;;;;;;;8.30;3.13;;;14.60;77.70;15.10;97481.00;;;;5036716;28;20205;-82
2022/01/01 05:39:49;;;;;;;8.23;2.87;;;14.60;77.70;15.00;97476.00;;;;5048203;28;20193;-82
2022/01/01 05:42:16;;;;;;;6.50;3.00;;;14.60;77.70;15.00;97477.00;;;;5056319;28;20201;-82
2022/01/01 05:44:43;;;;;;;41.40;5.40;;;14.60;77.80;15.00;97487.00;;;;5034573;28;20224;-82
2022/01/01 05:47:11;;;;;;;25.87;3.93;;;14.60;77.80;15.00;97486.00;;;;5058175;28;20224;-82
2022/01/01 05:49:38;;;;;;;6.10;2.60;;;14.60;77.80;15.00;97476.00;;;;5048407;28;20194;-82
2022/01/01 05:52:05;;;;;;;7.77;2.97;;;14.60;77.90;15.00;97482.00;;;;5019516;28;20226;-82
2022/01/01 05:54:32;;;;;;;8.23;3.00;;;14.60;77.70;15.00;97474.00;;;;5034270;28;20570;-83
2022/01/01 05:57:00;;;;;;;20.53;3.60;;;14.60;77.70;15.00;97474.00;;;;5055387;28;20193;-82
2022/01/01 05:59:27;;;;;;;19.13;3.70;;;14.50;77.60;15.00;97471.00;;;;5046886;28;20659;-83
2022/01/01 06:01:54;;;;;;;4.40;2.73;;;14.50;77.50;14.90;97479.00;;;;5034604;28;20201;-82
2022/01/01 06:04:22;;;;;;;11.43;2.83;;;14.50;77.30;15.00;97469.00;;;;5037363;28;20212;-82
2022/01/01 06:06:49;;;;;;;2.37;2.17;;;14.50;77.30;14.90;97475.00;;;;5031459;28;20401;-83
2022/01/01 06:09:16;;;;;;;17.53;3.03;;;14.50;77.50;14.90;97473.00;;;;5026537;28;20189;-83
2022/01/01 06:11:43;;;;;;;3.30;2.23;;;14.50;77.60;14.90;97463.00;;;;5055151;28;20637;-83
2022/01/01 06:14:11;;;;;;;16.40;2.80;;;14.50;77.10;14.90;97468.00;;;;5045916;28;20223;-83
2022/01/01 06:16:38;;;;;;;5.37;2.70;;;14.50;77.10;14.80;97467.00;;;;5039168;28;20193;-82
2022/01/01 06:19:05;;;;;;;8.20;2.87;;;14.50;77.00;14.90;97464.00;;;;5036941;28;20390;-83
2022/01/01 06:21:34;;;;;;;3.97;2.80;;;14.40;76.90;14.90;97468.00;;;;5046169;28;20556;-83
2022/01/01 06:24:01;;;;;;;12.70;3.17;;;14.40;76.90;14.80;97466.00;;;;5033504;28;20217;-83
2022/01/01 06:26:28;;;;;;;5.20;3.13;;;14.40;77.00;14.80;97461.00;;;;5033974;28;20670;-82
2022/01/01 06:28:55;;;;;;;23.00;4.57;;;14.40;77.00;14.80;97459.00;;;;5034307;28;20666;-82
2022/01/01 06:31:21;;;;;;;10.73;3.23;;;14.30;77.00;14.80;97461.00;;;;5033491;28;20229;-83
2022/01/01 06:33:49;;;;;;;22.80;4.60;;;14.30;76.90;14.80;97471.00;;;;5025889;28;20252;-82
2022/01/01 06:36:17;;;;;;;3.07;2.77;;;14.30;77.10;14.80;97472.00;;;;5013307;28;20201;-82
2022/01/01 06:38:46;;;;;;;4.00;3.03;;;14.30;77.10;14.80;97463.00;;;;5013981;28;20202;-82
2022/01/01 06:41:15;;;;;;;10.00;3.13;;;14.30;76.80;14.70;97461.00;;;;5014338;28;20205;-82
2022/01/01 06:43:42;;;;;;;29.90;3.80;;;14.20;77.70;14.70;97460.00;;;;5024490;28;20336;-83
2022/01/01 06:46:09;;;;;;;9.07;3.17;;;14.20;76.90;14.60;97468.00;;;;5033318;28;20276;-83
2022/01/01 06:48:36;;;;;;;16.20;3.47;;;14.20;76.70;14.60;97465.00;;;;5033553;28;20547;-86
2022/01/01 06:51:03;;;;;;;8.87;3.20;;;14.10;76.50;14.50;97466.00;;;;5033650;28;20201;-84
2022/01/01 06:53:30;;;;;;;7.87;3.10;;;14.10;76.40;14.50;97474.00;;;;5033159;28;20225;-83
2022/01/01 06:56:05;;;;;;;3.80;2.50;;;14.00;76.50;14.40;97472.00;;;;5050789;28;20199;-83
2022/01/01 06:58:32;;;;;;;6.80;2.57;;;13.90;76.40;14.30;97466.00;;;;5053364;28;20176;-82
2022/01/01 07:00:59;;;;;;;2.93;2.73;;;13.90;76.30;14.30;97461.00;;;;5053098;28;20681;-83
2022/01/01 07:03:26;;;;;;;13.27;3.23;;;13.80;76.10;14.20;97468.00;;;;5048630;28;20225;-83
2022/01/01 07:05:53;;;;;;;12.53;2.97;;;13.80;76.20;14.10;97464.00;;;;5033078;28;20204;-83
2022/01/01 07:08:23;;;;;;;13.13;3.20;;;13.70;76.20;14.10;97467.00;;;;5035685;28;20193;-82
2022/01/01 07:10:50;;;;;;;16.90;3.40;;;13.70;76.30;14.00;97465.00;;;;5052463;28;20205;-83
2022/01/01 07:13:19;;;;;;;11.70;2.90;;;13.60;76.30;13.90;97459.00;;;;5047794;28;20746;-83
2022/01/01 07:15:46;;;;;;;13.00;3.23;;;13.50;76.20;13.90;97474.00;;;;5052572;28;20209;-82
2022/01/01 07:18:13;;;;;;;17.30;3.00;;;13.50;76.40;13.80;97473.00;;;;5052931;28;20202;-83
2022/01/01 07:20:41;;;;;;;11.67;3.07;;;13.40;76.40;13.80;97474.00;;;;5052551;28;20201;-82
2022/01/01 07:23:08;;;;;;;3.30;3.00;;;13.20;76.30;13.70;97475.00;;;;5052261;28;20239;-83
2022/01/01 07:25:35;;;;;;;3.60;2.63;;;13.30;76.60;13.70;97481.00;;;;5052527;28;20227;-83
2022/01/01 07:28:02;;;;;;;7.23;2.80;;;13.40;76.80;13.70;97481.00;;;;5052694;28;20196;-83
2022/01/01 07:30:30;;;;;;;5.27;2.50;;;13.20;76.90;13.70;97485.00;;;;5052198;28;20200;-83
2022/01/01 07:32:58;;;;;;;2.23;2.03;;;13.20;77.20;13.70;97483.00;;;;5052158;28;20712;-83
2022/01/01 07:35:25;;;;;;;3.00;2.50;;;13.20;77.30;13.60;97474.00;;;;5032112;28;20197;-83
2022/01/01 07:37:52;;;;;;;15.17;3.00;;;13.20;77.40;13.60;97479.00;;;;5022915;28;20205;-83
2022/01/01 07:40:20;;;;;;;9.87;2.47;;;13.20;77.30;13.60;97477.00;;;;5049129;28;20551;-82
2022/01/01 07:42:48;;;;;;;7.23;2.70;;;13.10;77.20;13.50;97488.00;;;;5049455;28;20260;-83
2022/01/01 07:45:16;;;;;;;28.00;3.83;;;13.10;77.20;13.50;97483.00;;;;5032645;28;20194;-83
2022/01/01 07:47:44;;;;;;;5.10;2.80;;;13.10;77.10;13.50;97484.00;;;;5032763;28;20200;-82
2022/01/01 07:50:12;;;;;;;7.37;3.10;;;13.00;76.90;13.40;97494.00;;;;5031960;28;20675;-83
2022/01/01 07:52:39;;;;;;;6.03;2.60;;;13.00;76.90;13.40;97492.00;;;;5032417;28;20228;-82
2022/01/01 07:55:08;;;;;;;4.07;2.47;;;13.00;76.90;13.40;97489.00;;;;5032269;28;20201;-83
2022/01/01 07:57:35;;;;;;;6.03;3.03;;;12.90;76.90;13.30;97498.00;;;;5031190;28;20193;-83
2022/01/01 08:00:07;;;;;;;9.60;2.93;;;12.90;77.00;13.30;97509.00;;;;5032146;28;20205;-83
2022/01/01 08:02:40;;;;;;;10.00;3.50;;;12.90;77.20;13.30;97512.00;;;;5032075;28;20196;-82
2022/01/01 08:05:10;;;;;;;9.97;3.33;;;12.80;77.10;13.20;97499.00;;;;5014103;28;20205;-83
2022/01/01 08:07:38;;;;;;;5.37;3.07;;;12.80;77.40;13.20;97498.00;;;;5012497;28;20197;-83
2022/01/01 08:10:06;;;;;;;39.83;4.47;;;12.80;77.70;13.20;97503.00;;;;5042449;28;20665;-83
2022/01/01 08:12:34;;;;;;;16.83;3.53;;;12.80;78.00;13.30;97519.00;;;;5050884;28;20224;-84
2022/01/01 08:15:01;;;;;;;9.70;3.07;;;12.80;78.10;13.30;97512.00;;;;5031850;28;20197;-83
2022/01/01 08:17:28;;;;;;;5.43;2.60;;;12.80;78.30;13.30;97512.00;;;;5032202;28;20201;-83
2022/01/01 08:19:55;;;;;;;9.13;3.10;;;12.80;78.40;13.40;97514.00;;;;5032147;28;20209;-84
2022/01/01 08:22:23;;;;;;;8.00;2.63;;;12.90;78.60;13.40;97511.00;;;;5032587;28;20212;-83
2022/01/01 08:24:51;;;;;;;6.90;2.70;;;12.90;78.70;13.50;97504.00;;;;5037084;28;20189;-85
2022/01/01 08:27:18;;;;;;;14.87;3.40;;;12.90;79.40;13.50;97513.00;;;;5036642;28;20208;-85
2022/01/01 08:29:45;;;;;;;3.23;2.50;;;13.00;78.70;13.60;97509.00;;;;5036129;28;20199;-84
2022/01/01 08:32:12;;;;;;;4.83;2.27;;;13.00;78.50;13.60;97504.00;;;;5036245;28;20593;-84
2022/01/01 08:34:39;;;;;;;21.57;3.20;;;13.00;78.30;13.70;97516.00;;;;5043765;28;20224;-84
2022/01/01 08:37:06;;;;;;;11.10;3.37;;;13.60;78.70;13.70;97509.00;;;;5059979;28;20210;-83
2022/01/01 08:39:35;;;;;;;2.83;2.30;;;13.20;78.40;13.70;97503.00;;;;5059300;28;20283;-82
2022/01/01 08:42:02;;;;;;;2.57;2.37;;;13.20;78.20;13.80;97505.00;;;;5060080;28;20196;-82
2022/01/01 08:44:30;;;;;;;14.47;3.30;;;13.20;78.30;13.80;97501.00;;;;5055321;28;20566;-83
2022/01/01 08:46:58;;;;;;;2.90;2.50;;;13.30;78.10;13.80;97498.00;;;;5050823;28;20212;-83
2022/01/01 08:49:25;;;;;;;4.67;2.40;;;13.30;77.90;13.80;97502.00;;;;5047273;28;20193;-82
2022/01/01 08:51:55;;;;;;;2.87;2.60;;;13.30;77.60;13.80;97499.00;;;;5039945;28;20560;-83
2022/01/01 08:54:22;;;;;;;3.20;2.90;;;13.30;77.50;13.80;97510.00;;;;5044907;28;20303;-83
2022/01/01 08:56:51;;;;;;;3.70;2.40;;;13.30;77.60;13.80;97498.00;;;;5037905;28;20607;-83
2022/01/01 08:59:17;;;;;;;3.30;2.20;;;13.30;77.30;13.80;97497.00;;;;5037096;28;20196;-83
2022/01/01 09:01:45;;;;;;;5.63;2.57;;;13.30;77.40;13.80;97495.00;;;;5036831;28;20207;-83
2022/01/01 09:04:12;;;;;;;3.03;2.73;;;13.30;77.40;13.90;97492.00;;;;5036456;28;20225;-83
2022/01/01 09:06:39;;;;;;;3.13;2.70;;;13.40;77.10;13.90;97497.00;;;;5035683;28;20293;-83
2022/01/01 09:09:07;;;;;;;2.70;2.50;;;13.40;77.20;13.90;97488.00;;;;5053433;28;20206;-83
2022/01/01 09:11:35;;;;;;;2.63;2.30;;;13.40;77.10;13.90;97487.00;;;;5055869;28;20212;-82
2022/01/01 09:14:04;;;;;;;4.03;2.57;;;13.40;77.00;13.90;97492.00;;;;5026410;28;20230;-83
2022/01/01 09:16:31;;;;;;;3.27;2.60;;;13.40;77.20;14.00;97495.00;;;;5015878;28;20681;-83
2022/01/01 09:18:58;;;;;;;2.97;2.63;;;13.50;77.20;13.90;97499.00;;;;5016176;28;20225;-83
2022/01/01 09:21:27;;;;;;;5.43;2.70;;;13.50;77.00;13.90;97500.00;;;;5015980;28;20200;-83
2022/01/01 09:23:54;;;;;;;2.40;2.20;;;13.50;77.00;14.00;97505.00;;;;5015896;28;20692;-83
2022/01/01 09:26:21;;;;;;;7.50;2.90;;;13.50;76.80;14.00;97510.00;;;;5015806;28;20198;-83
2022/01/01 09:28:48;;;;;;;2.60;2.40;;;13.50;76.70;14.00;97511.00;;;;5044522;28;20192;-84
2022/01/01 09:31:17;;;;;;;2.27;2.03;;;13.50;76.60;14.00;97512.00;;;;5055539;28;20204;-84
2022/01/01 09:33:44;;;;;;;2.20;2.00;;;13.60;76.40;14.00;97516.00;;;;5048281;28;20244;-83
2022/01/01 09:36:14;;;;;;;6.27;2.10;;;13.60;76.50;14.00;97519.00;;;;5034535;28;20284;-84
2022/01/01 09:38:42;;;;;;;2.13;1.93;;;13.60;76.80;14.00;97517.00;;;;5035450;28;20201;-84
2022/01/01 09:41:11;;;;;;;5.57;2.13;;;13.60;76.80;14.10;97514.00;;;;5035125;28;20303;-84
2022/01/01 09:43:38;;;;;;;15.47;3.07;;;13.70;76.70;14.20;97518.00;;;;5037058;28;20300;-82
2022/01/01 09:46:07;;;;;;;2.43;2.23;;;13.70;76.80;14.20;97528.00;;;;5034957;28;20197;-84
2022/01/01 09:48:36;;;;;;;10.37;3.00;;;13.70;77.00;14.30;97521.00;;;;5046274;28;20544;-84
2022/01/01 09:51:06;;;;;;;5.60;2.90;;;13.90;77.00;14.50;97516.00;;;;5054603;28;20204;-83
2022/01/01 09:53:34;;;;;;;4.57;2.30;;;13.90;77.00;14.60;97518.00;;;;5054189;28;20225;-83
2022/01/01 09:56:03;;;;;;;4.20;2.33;;;14.00;77.20;14.70;97516.00;;;;5053556;28;20279;-84
2022/01/01 09:58:33;;;;;;;2.57;2.13;;;14.20;77.40;14.80;97511.00;;;;5054678;28;20296;-84
2022/01/01 10:01:02;;;;;;;2.53;2.33;;;14.40;77.90;14.90;97521.00;;;;5039690;28;20193;-83
2022/01/01 10:03:33;;;;;;;2.17;1.97;;;14.60;78.20;15.00;97524.00;;;;5034467;28;20316;-83
2022/01/01 10:06:05;;;;;;;3.57;2.27;;;14.80;77.70;15.20;97522.00;;;;5033995;28;20178;-83
2022/01/01 10:08:33;;;;;;;2.40;2.20;;;15.00;77.40;15.30;97529.00;;;;5034130;28;20184;-85
2022/01/01 10:11:00;;;;;;;3.03;2.43;;;15.30;78.20;15.50;97531.00;;;;5034099;28;20631;-84
2022/01/01 10:13:34;;;;;;;3.10;2.37;;;15.50;77.40;15.70;97529.00;;;;5033729;28;20253;-83
2022/01/01 10:16:04;;;;;;;2.57;2.37;;;15.70;76.80;15.80;97528.00;;;;5033729;28;20201;-83
2022/01/01 10:18:33;;;;;;;2.87;2.40;;;16.00;76.90;16.00;97517.00;;;;5043650;28;20198;-84
2022/01/01 10:21:04;;;;;;;14.93;3.13;;;16.10;76.50;16.20;97526.00;;;;5033659;28;20189;-84
2022/01/01 10:23:34;;;;;;;4.05;3.08;;;16.40;75.80;16.40;97533.00;;;;5012758;28;20453;-84
2022/01/01 10:29:09;;;;;;;3.43;2.20;;;16.70;72.40;16.70;97538.00;;;;5036842;28;20204;-84
2022/01/01 10:31:38;;;;;;;2.20;2.00;;;16.90;73.00;16.90;97537.00;;;;5037126;28;20200;-85
2022/01/01 10:34:15;;;;;;;2.70;2.50;;;17.10;73.60;17.00;97537.00;;;;5034284;28;20230;-84
2022/01/01 10:36:48;;;;;;;4.83;2.40;;;17.20;72.90;17.10;97533.00;;;;5021716;28;20199;-85
2022/01/01 10:39:18;;;;;;;4.47;2.30;;;17.30;70.90;17.30;97521.00;;;;5052774;28;20672;-84
2022/01/01 10:41:49;;;;;;;2.57;2.27;;;17.40;71.90;17.40;97521.00;;;;5050431;28;20189;-84
2022/01/01 10:44:22;;;;;;;3.50;2.40;;;17.40;71.40;17.50;97525.00;;;;5036770;28;20225;-84
2022/01/01 10:46:49;;;;;;;2.40;2.20;;;17.40;71.40;17.50;97517.00;;;;5032338;28;20185;-85
2022/01/01 10:49:32;;;;;;;2.43;2.10;;;17.50;71.30;17.50;97516.00;;;;5032967;28;20205;-83
2022/01/01 10:52:15;;;;;;;5.23;2.00;;;17.50;70.30;17.50;97513.00;;;;5033707;28;20205;-83
2022/01/01 10:54:51;;;;;;;4.17;2.13;;;17.40;69.20;17.40;97503.00;;;;5032873;28;20221;-84
2022/01/01 10:57:26;;;;;;;2.57;2.37;;;17.30;69.70;17.40;97502.00;;;;5041736;28;20211;-84
2022/01/01 11:00:08;;;;;;;2.53;2.30;;;17.20;69.00;17.30;97490.00;;;;5018134;28;20189;-84
2022/01/01 11:02:36;;;;;;;5.83;2.40;;;17.20;69.40;17.30;97493.00;;;;5036652;28;20204;-83
2022/01/01 11:05:05;;;;;;;2.63;2.20;;;17.10;69.60;17.20;97493.00;;;;5023657;28;20205;-84
2022/01/01 11:07:35;;;;;;;2.63;2.43;;;17.00;69.40;17.10;97491.00;;;;5051250;28;20574;-84